Home > Products > Valid Products > TAF

000
FTUS41 KLWX 302300 RRA
TAFDCA
TAF
KDCA 302342Z 3100/3124 34004KT P6SM BKN060
     FM311000 03003KT P6SM SCT050
     FM311400 05004KT P6SM BKN050=



000
FTUS41 KLWX 302300 RRA
TAFMRB
TAF
KMRB 302342Z 3100/3124 VRB03KT P6SM OVC060
     FM310400 00000KT P6SM SCT050
     FM310900 11003KT P6SM BKN050=



000
FTUS41 KLWX 302300 RRA
TAFIAD
TAF
KIAD 302342Z 3100/0106 34004KT P6SM BKN060
     FM310200 00000KT P6SM SCT060
     FM311300 04004KT P6SM BKN050
     FM311800 09005KT P6SM BKN060=



000
FTUS41 KLWX 302300 RRA
TAFCHO
TAF
KCHO 302342Z 3100/3124 00000KT P6SM SCT060
     FM311400 10003KT P6SM BKN050=



000
FTUS41 KLWX 302300 RRA
TAFMTN
TAF
KMTN 302342Z 3100/3124 32005KT P6SM BKN060
     FM310100 33005KT P6SM SCT060
     FM311200 04004KT P6SM SCT050
     FM311400 05005KT P6SM BKN050
      AMD NOT SKED 3102/3112=



000
FTUS41 KLWX 302300 RRA
TAFBWI
TAF
KBWI 302342Z 3100/0106 33004KT P6SM BKN060
     FM310100 VRB03KT P6SM SCT060
     FM311400 06004KT P6SM BKN050=



000
FTUS41 KLWX 302000 AAA
TAFIAD
TAF AMD
KIAD 302054Z 3021/3124 33007KT P6SM BKN050
     FM310400 VRB03KT P6SM BKN050
     FM311400 08004KT P6SM BKN040=



000
FTUS41 KLWX 302000 AAA
TAFBWI
TAF AMD
KBWI 302054Z 3021/3124 34005KT P6SM BKN050
     FM310400 VRB03KT P6SM BKN050
     FM311400 06004KT P6SM BKN100=



000
FTUS41 KLWX 302000 AAA
TAFDCA
TAF AMD
KDCA 302054Z 3021/3118 34009KT P6SM BKN050
     FM310300 VRB03KT P6SM SCT050
     FM311400 05004KT P6SM BKN060=



000
FTUS41 KLWX 301700
TAFIAD
TAF
KIAD 301725Z 3018/3124 30007KT P6SM SCT045
     FM310600 VRB03KT P6SM FEW150
     FM310900 VRB03KT P6SM SCT050
     FM311300 VRB03KT P6SM BKN040=



000
FTUS41 KLWX 301700
TAFCHO
TAF
KCHO 301725Z 3018/3118 35008KT P6SM OVC050
     FM311400 VRB03KT P6SM BKN035=



000
FTUS41 KLWX 301700
TAFDCA
TAF
KDCA 301725Z 3018/3118 33009KT P6SM SCT050
     FM310300 VRB03KT P6SM FEW040
     FM310800 VRB03KT P6SM FEW200
     FM311400 VRB03KT P6SM BKN060=



000
FTUS41 KLWX 301700
TAFBWI
TAF
KBWI 301725Z 3018/3124 35005KT P6SM SCT045
     FM310400 VRB03KT P6SM FEW150
     FM312000 VRB03KT P6SM BKN100=



000
FTUS41 KLWX 301700
TAFMTN
TAF
KMTN 301725Z 3018/3118 27012KT P6SM SCT040 SCT060
     FM302300 33004KT P6SM FEW040
     FM310300 VRB03KT P6SM FEW150=



000
FTUS41 KLWX 301700
TAFMRB
TAF
KMRB 301725Z 3018/3118 34006KT P6SM SCT040 BKN050 OVC060
     FM302300 VRB03KT P6SM SCT035
     FM311100 VRB03KT P6SM BKN035=



000
FTUS41 KLWX 301400 AAA
TAFBWI
TAF AMD
KBWI 301447Z 3015/3118 30006KT P6SM FEW080 SCT250
     FM310000 VRB03KT P6SM FEW040
     FM310400 00000KT P6SM FEW150=



000
FTUS41 KLWX 301400 AAA
TAFIAD
TAF AMD
KIAD 301447Z 3015/3118 31007KT P6SM FEW070
     FM310600 00000KT P6SM FEW150
     FM310900 00000KT P6SM SCT050
     FM311300 00000KT P6SM BKN040=



000
FTUS41 KLWX 301400 AAA
TAFDCA
TAF AMD
KDCA 301447Z 3015/3112 32012KT P6SM SCT070 SCT120
     FM310100 00000KT P6SM FEW200
     FM310300 00000KT P6SM FEW040
     FM310800 00000KT P6SM SCT200=



000
FTUS41 KLWX 301100
TAFBWI
TAF
KBWI 301133Z 3012/3118 29004KT P6SM SCT070 SCT250
     FM301500 33008KT P6SM SCT050
     FM310000 VRB03KT P6SM FEW040
     FM310400 00000KT P6SM FEW150=



000
FTUS41 KLWX 301100
TAFIAD
TAF
KIAD 301133Z 3012/3118 32003KT P6SM SCT070
     FM301400 33006KT P6SM SCT130
     FM310000 00000KT P6SM FEW040
     FM310900 00000KT P6SM SCT050
     FM311300 00000KT P6SM BKN040=



000
FTUS41 KLWX 301100
TAFDCA
TAF
KDCA 301133Z 3012/3112 33012KT P6SM FEW110
     FM301500 33009KT P6SM SCT045
     FM302200 33005KT P6SM FEW050
     FM310300 00000KT P6SM FEW040
     FM310800 00000KT P6SM SCT200=



000
FTUS41 KLWX 301100
TAFMRB
TAF
KMRB 301133Z 3012/3112 25003KT P6SM OVC070
     FM301300 VRB03KT P6SM SCT130
     FM301500 32008KT P6SM SCT040
     FM302200 32004KT P6SM FEW040
     FM311100 00000KT P6SM BKN035=



000
FTUS41 KLWX 301100
TAFMTN
TAF
KMTN 301133Z 3012/3112 00000KT P6SM FEW200
     FM301500 33008KT P6SM SCT050
     FM302300 33004KT P6SM FEW040
     FM310300 00000KT P6SM FEW150=



000
FTUS41 KLWX 301100
TAFCHO
TAF
KCHO 301133Z 3012/3112 00000KT P6SM SKC
     FM301300 34005KT P6SM FEW200
     FM301600 34005KT P6SM FEW045=



000
FTUS41 KLWX 300900 AAA
TAFCHO
TAF AMD
KCHO 300906Z 3009/3106 00000KT 2SM BR SCT002
     FM301200 VRB03KT 3SM BR SKC
     FM301500 34005KT P6SM FEW250
     FM301800 34004KT P6SM FEW040
     FM310400 00000KT P6SM SCT040=



000
FTUS41 KLWX 300800 AAB
TAFDCA
TAF AMD
KDCA 300857Z 3009/3106 00000KT P6SM FEW250
     FM301400 33006KT P6SM SCT250
     FM301600 33009KT P6SM SCT040
     FM302200 33005KT P6SM FEW040=



000
FTUS41 KLWX 300800 AAA
TAFIAD
TAF AMD
KIAD 300855Z 3009/3112 00000KT P6SM FEW001
     FM301400 33006KT P6SM SCT250
     FM301600 33009KT P6SM SCT040
     FM302300 VRB03KT P6SM FEW250
     FM310300 00000KT P6SM FEW040=



000
FTUS41 KLWX 300800 AAA
TAFDCA
TAF AMD
KDCA 300855Z 3009/3106 00000KT P6SM FEW250
     FM301400 33006KT P6SM SCT250
     FM301600 33009KT P6SM SCT040
     FM301700 32008KT P6SM SCT250
     FM302200 33005KT P6SM FEW040=



000
FTUS41 KLWX 300800 AAA
TAFBWI
TAF AMD
KBWI 300855Z 3009/3112 00000KT 5SM BR SKC
     FM301400 33008KT P6SM SCT250
     FM302200 33005KT P6SM FEW040
     FM310800 00000KT P6SM SCT040=



000
FTUS41 KLWX 300500
TAFCHO
TAF
KCHO 300521Z 3006/3106 00000KT 1/2SM FG OVC001
     FM301100 00000KT 1/2SM FG SCT001
     FM301400 VRB03KT 3SM BR FEW130
     FM301500 34005KT P6SM FEW250
     FM301800 34004KT P6SM FEW040
     FM310400 00000KT P6SM SCT040=



000
FTUS41 KLWX 300500
TAFIAD
TAF
KIAD 300521Z 3006/3112 00000KT P6SM SKC
     FM301400 33006KT P6SM SCT250
     FM301800 33007KT P6SM SCT040
     FM310300 00000KT P6SM SCT040
     FM310800 00000KT P6SM BKN040=



000
FTUS41 KLWX 300500
TAFMTN
TAF
KMTN 300521Z 3006/3106 NIL=



000
FTUS41 KLWX 300500
TAFBWI
TAF
KBWI 300521Z 3006/3112 00000KT 3SM BR FEW250
     FM301400 33008KT P6SM SCT050
     FM302200 33005KT P6SM FEW040
     FM310800 00000KT P6SM BKN040=



000
FTUS41 KLWX 300500
TAFMRB
TAF
KMRB 300521Z 3006/3106 VRB03KT P6SM SKC
     FM301500 32008KT P6SM SCT250
     FM301700 33007KT P6SM SCT040
     FM302300 00000KT P6SM SCT040
     FM310500 00000KT P6SM BKN035=



000
FTUS41 KLWX 300500
TAFDCA
TAF
KDCA 300521Z 3006/3106 00000KT P6SM SKC
     FM301400 33006KT P6SM SCT250
     FM301800 33006KT P6SM SCT040=



000
FTUS41 KLWX 300400 AAB
TAFCHO
TAF AMD
KCHO 300402Z 3004/3024 00000KT 1/4SM FG VV001
     FM300800 00000KT 3SM BR SCT001
     FM301400 35007KT P6SM SCT100=



000
FTUS41 KLWX 300200 AAA
TAFCHO
TAF AMD
KCHO 300223Z 3002/3024 00000KT 2SM BCFG BKN001
     FM300400 00000KT 3SM BR SCT001
     FM301400 35007KT P6SM SCT100=



000
FTUS41 KLWX 300200 AAA
TAFIAD
TAF AMD
KIAD 300219Z 3002/3106 VRB03KT 2SM BCFG FEW090
     FM300400 33004KT 5SM BR SCT090
     FM301400 33009KT P6SM SCT070
     FM302300 33004KT P6SM FEW050=



000
FTUS41 KLWX 292300
TAFIAD
TAF
KIAD 292332Z 3000/3106 VRB03KT P6SM MIFG FEW090
     FM300100 33004KT P6SM SCT090
     FM301500 33009KT P6SM SCT070
     FM302300 33004KT P6SM FEW050=



000
FTUS41 KLWX 292300
TAFMTN
TAF
KMTN 292332Z 3000/3024 VRB03KT P6SM BKN060
     FM300200 31004KT P6SM SCT090
     FM300600 32005KT P6SM SCT110
      AMD NOT SKED 3002/3012=



000
FTUS41 KLWX 292300
TAFMRB
TAF
KMRB 292332Z 3000/3024 27006KT P6SM SCT090
     FM301300 32009KT P6SM SCT100
     FM302200 33004KT P6SM SCT045=



000
FTUS41 KLWX 292300
TAFDCA
TAF
KDCA 292332Z 3000/3024 VRB03KT P6SM SCT090
     FM301400 33009KT P6SM SCT090=



000
FTUS41 KLWX 292300
TAFBWI
TAF
KBWI 292332Z 3000/3106 VRB03KT P6SM BKN090
     FM300200 31004KT P6SM SCT100
     FM300800 32004KT P6SM FEW120
     FM301500 33009KT P6SM SCT070
     FM310000 00000KT P6SM FEW050=



000
FTUS41 KLWX 292300
TAFCHO
TAF
KCHO 292332Z 3000/3024 03005KT P6SM BKN090
     FM300200 VRB03KT P6SM SCT100
     FM301400 35007KT P6SM SCT100=



000
FTUS41 KLWX 292100 AAA
TAFBWI
TAF AMD
KBWI 292130Z 2922/3024 29004KT P6SM BKN060
     FM300100 30003KT P6SM FEW250
     FM301500 32009KT P6SM SCT050=



000
FTUS41 KLWX 292100 AAA
TAFDCA
TAF AMD
KDCA 292130Z 2922/3018 33005KT P6SM BKN060
     FM300000 32005KT P6SM FEW250
     FM301600 34009KT P6SM SCT050=



000
FTUS41 KLWX 292100 AAA
TAFIAD
TAF AMD
KIAD 292130Z 2922/3024 33006KT P6SM SCT080
     FM292300 30005KT P6SM FEW250
     FM301500 33009KT P6SM SCT050=



000
FTUS41 KLWX 292000 AAC
TAFMTN
TAF AMD
KMTN 292029Z 2920/3018 31006KT P6SM VCSH SCT015 OVC040
     FM292200 29003KT P6SM BKN080
     FM300100 31003KT P6SM FEW250
     FM301500 30007KT P6SM SCT050=



000
FTUS41 KLWX 292000 AAB
TAFMTN
TAF AMD
KMTN 292014Z 2920/3018 31006KT P6SM -SHRA SCT015 OVC040
      TEMPO 2920/2921 5SM -SHRA BKN012
     FM292100 29003KT P6SM VCSH BKN080
     FM300100 31003KT P6SM FEW250
     FM301500 30007KT P6SM SCT050=



000
FTUS41 KLWX 291900 AAB
TAFBWI
TAF AMD
KBWI 291939Z 2920/3024 VRB03KT 6SM -RA SCT024 SCT040 OVC080
     FM292100 29004KT P6SM BKN080
     FM300100 30003KT P6SM FEW250
     FM301500 32009KT P6SM SCT050=



000
FTUS41 KLWX 291900 AAA
TAFMRB
TAF AMD
KMRB 291906Z 2919/3018 30005KT P6SM BKN120
     FM292300 30004KT P6SM FEW250
     FM301200 31005KT P6SM SCT050
      TEMPO 3015/3018 BKN050=



000
FTUS41 KLWX 291900 AAA
TAFCHO
TAF AMD
KCHO 291905Z 2919/3018 00000KT P6SM FEW025 SCT080 OVC100
      TEMPO 2919/2920 -SHRA BKN080
     FM292000 31004KT P6SM BKN100
     FM300000 31004KT P6SM FEW250
     FM301500 35004KT P6SM SCT050=



000
FTUS41 KLWX 291900 AAA
TAFBWI
TAF AMD
KBWI 291902Z 2919/3024 VRB03KT 6SM -RA SCT024 SCT040 OVC080
      TEMPO 2919/2921 4SM RA BR BKN025
     FM292100 29004KT P6SM VCSH BKN080
     FM300100 30003KT P6SM FEW250
     FM301500 32009KT P6SM SCT050=



000
FTUS41 KLWX 291900 AAA
TAFMTN
TAF AMD
KMTN 291900Z 2919/3018 31008G16KT 4SM RA SCT015 BKN021 OVC040
      TEMPO 2919/2921 P6SM -RA
     FM292100 29003KT P6SM VCSH BKN080
     FM300100 31003KT P6SM FEW250
     FM301500 30007KT P6SM SCT050=



000
FTUS41 KLWX 291800 AAA
TAFDCA
TAF AMD
KDCA 291858Z 2919/3018 36005KT P6SM -RA BKN035 BKN045 OVC070
      TEMPO 2919/2920 4SM RA BR BKN030
     FM292100 33005KT P6SM BKN100
     FM300000 32005KT P6SM FEW250
     FM301600 34009KT P6SM SCT050=



000
FTUS41 KLWX 291800 AAA
TAFIAD
TAF AMD
KIAD 291856Z 2919/3024 34006KT 5SM -RA BR FEW021 BKN035 OVC060
      TEMPO 2919/2920 P6SM NSW SCT035 BKN080
     FM292000 33006KT P6SM BKN100
     FM292300 30005KT P6SM FEW250
     FM301500 33009KT P6SM SCT050=



000
FTUS41 KLWX 291700 RRA
TAFDCA
TAF
KDCA 291742Z 2918/3018 33010KT P6SM -SHRA OVC040
      TEMPO 2919/2921 1SM +RA BR BKN025
     FM292200 33005KT P6SM BKN100
     FM300000 32005KT P6SM FEW250
     FM301600 34009KT P6SM SCT050=



000
FTUS41 KLWX 291700 RRA
TAFCHO
TAF
KCHO 291742Z 2918/3018 36003KT P6SM -SHRA OVC050
      TEMPO 2918/2920 2SM SHRA BR OVC025
     FM292000 31004KT P6SM OVC080
     FM300000 31004KT P6SM FEW250
     FM301500 35004KT P6SM SCT050=



000
FTUS41 KLWX 291700 RRA
TAFIAD
TAF
KIAD 291742Z 2918/3024 33009KT P6SM -SHRA OVC040
      TEMPO 2918/2920 1SM +RA BR BKN025
     FM292100 33006KT P6SM BKN100
     FM292300 30005KT P6SM FEW250
     FM301500 33009KT P6SM SCT050=



000
FTUS41 KLWX 291700 RRA
TAFBWI
TAF
KBWI 291742Z 2918/3024 33010KT P6SM VCSH OVC040
     FM291900 30007KT P6SM -SHRA OVC040
      TEMPO 2919/2921 1SM +RA BR BKN025
     FM292300 29004KT P6SM BKN100
     FM300100 30003KT P6SM FEW250
     FM301500 32009KT P6SM SCT050=



000
FTUS41 KLWX 291700 RRA
TAFMRB
TAF
KMRB 291742Z 2918/3018 29006KT P6SM -SHRA OVC040
     FM291900 29007KT P6SM BKN050
     FM292100 30005KT P6SM BKN120
     FM292300 30004KT P6SM FEW250
     FM301200 31005KT P6SM SCT050
      TEMPO 3015/3018 BKN050=



000
FTUS41 KLWX 291700 RRA
TAFMTN
TAF
KMTN 291742Z 2918/3018 30010KT P6SM VCSH OVC040
     FM291900 30006KT P6SM -SHRA OVC040
      TEMPO 2919/2921 1SM +RA BR BKN025
     FM292300 29003KT P6SM BKN100
     FM300300 31003KT P6SM FEW250
     FM301500 30007KT P6SM SCT050=



000
FTUS41 KLWX 291600 AAC
TAFDCA
TAF AMD
KDCA 291607Z 2916/3012 32018G23KT P6SM BKN080 BKN200
     FM291700 33010KT P6SM -SHRA BKN040
     FM292200 33005KT P6SM OVC110
     FM300100 33005KT P6SM SCT250=



000
FTUS41 KLWX 291500 AAB
TAFDCA
TAF AMD
KDCA 291526Z 2915/3012 36011KT P6SM FEW050 BKN200
     FM291700 33008KT P6SM -SHRA BKN040
     FM292200 33005KT P6SM OVC090
     FM300100 33005KT P6SM SCT250=



000
FTUS41 KLWX 291500 AAB
TAFBWI
TAF AMD
KBWI 291519Z 2915/3018 31010KT P6SM BKN200
     FM291700 31007KT P6SM -SHRA OVC050
     FM292200 30004KT P6SM OVC100
     FM300100 30003KT P6SM SCT250
     FM301500 32008KT P6SM SCT050=



000
FTUS41 KLWX 291500 AAB
TAFIAD
TAF AMD
KIAD 291516Z 2915/3018 33014G21KT P6SM BKN080 BKN120 BKN250
     FM291600 32009KT P6SM -SHRA OVC040
     FM292100 32006KT P6SM OVC100
     FM300100 30005KT P6SM SCT250
     FM301500 33009KT P6SM SCT050=



000
FTUS41 KLWX 291300 AAA
TAFMTN
TAF AMD
KMTN 291350Z 2914/3012 30005KT P6SM BKN200
     FM291700 30007KT P6SM -SHRA OVC050
     FM292100 29003KT P6SM OVC100
     FM300300 30003KT P6SM SCT250=



000
FTUS41 KLWX 291300 AAA
TAFBWI
TAF AMD
KBWI 291346Z 2914/3018 30008KT P6SM BKN200
     FM291600 31007KT P6SM -SHRA OVC050
     FM292100 30004KT P6SM OVC100
     FM300200 30003KT P6SM SCT250
     FM301500 32008KT P6SM SCT050=



000
FTUS41 KLWX 291300 AAA
TAFDCA
TAF AMD
KDCA 291343Z 2914/3012 32009KT P6SM BKN200
     FM291600 33008KT P6SM -SHRA BKN050
     FM292100 33005KT P6SM OVC090
     FM300300 33005KT P6SM SCT250=



000
FTUS41 KLWX 291300 AAA
TAFIAD
TAF AMD
KIAD 291340Z 2914/3018 35009KT P6SM BKN200
     FM291600 32006KT P6SM -SHRA OVC040
     FM292000 32006KT P6SM OVC100
     FM300200 30005KT P6SM SCT250
     FM301500 33009KT P6SM SCT050=



000
FTUS41 KLWX 291300 AAA
TAFMRB
TAF AMD
KMRB 291337Z 2914/3012 31011KT P6SM -SHRA OVC050
     FM291700 28006KT P6SM BKN080
     FM300000 28006KT P6SM SCT140=



000
FTUS41 KLWX 291300 AAA
TAFCHO
TAF AMD
KCHO 291335Z 2914/3012 19003KT P6SM BKN200
     FM291700 31004KT 6SM SHRA OVC030
     FM292000 31004KT P6SM VCSH OVC080
     FM300200 31004KT P6SM SCT250=



000
FTUS41 KLWX 291100
TAFBWI
TAF
KBWI 291127Z 2912/3018 00000KT P6SM BKN220
     FM291400 31008KT P6SM BKN050
     FM291600 31009KT P6SM -SHRA OVC050
     FM292000 27005KT P6SM -SHRA BKN050
     FM292100 26004KT P6SM BKN070
     FM300200 29005KT P6SM SCT250=



000
FTUS41 KLWX 291100
TAFMRB
TAF
KMRB 291127Z 2912/3012 00000KT P6SM OVC100
     FM291700 28006KT P6SM BKN080
     FM300000 28006KT P6SM SCT140=



000
FTUS41 KLWX 291100
TAFIAD
TAF
KIAD 291127Z 2912/3018 00000KT P6SM BKN200
     FM291300 32007KT P6SM -SHRA BKN050
     FM291800 31006KT P6SM BKN040
     FM300200 30005KT P6SM SCT250=



000
FTUS41 KLWX 291100
TAFCHO
TAF
KCHO 291127Z 2912/3012 21006KT P6SM BKN200
     FM291300 VRB03KT P6SM -SHRA BKN070
     FM291800 28004KT P6SM OVC030
     FM291900 VRB03KT P6SM OVC050
     FM300200 31004KT P6SM SCT250=



000
FTUS41 KLWX 291100
TAFMTN
TAF
KMTN 291127Z 2912/3012 00000KT P6SM FEW150
     FM291500 31009KT P6SM OVC050
     FM291600 31009KT P6SM -SHRA OVC050
     FM292000 27005KT P6SM -SHRA BKN050
     FM292100 26004KT P6SM BKN070
     FM300300 30005KT P6SM SCT250=



000
FTUS41 KLWX 291100
TAFDCA
TAF
KDCA 291127Z 2912/3012 18004KT P6SM OVC230
     FM291500 32009KT P6SM BKN050
     FM291600 32009KT P6SM -SHRA BKN050
     FM292000 30004KT P6SM -SHRA BKN050
     FM292100 VRB03KT P6SM BKN070
     FM300300 31005KT P6SM SCT250=



000
FTUS41 KLWX 290800 AAA
TAFDCA
TAF AMD
KDCA 290852Z 2909/3006 23004KT P6SM BKN150
     FM291200 30004KT P6SM BKN250
     FM291500 32009KT P6SM -SHRA BKN050
     FM292000 30004KT P6SM BKN050
     FM292200 00000KT P6SM BKN100
     FM300300 31005KT P6SM SCT250=



000
FTUS41 KLWX 290800 AAA
TAFIAD
TAF AMD
KIAD 290852Z 2909/3012 VRB03KT P6SM BKN150
     FM291300 32007KT P6SM -SHRA BKN050
     FM291700 31007KT P6SM BKN045
     FM292100 VRB03KT P6SM BKN130=



000
FTUS41 KLWX 290800 AAA
TAFBWI
TAF AMD
KBWI 290852Z 2909/3012 24004KT P6SM BKN250
     FM291300 30006KT P6SM BKN080
     FM291500 31009KT P6SM -SHRA BKN050
     FM292000 27005KT P6SM BKN050
     FM300200 29005KT P6SM SCT250=



000
FTUS41 KLWX 290500
TAFDCA
TAF
KDCA 290524Z 2906/3006 21007KT P6SM BKN250
     FM291200 VRB03KT P6SM BKN250
     FM291500 30007KT P6SM BKN050
     FM291800 31008KT P6SM -SHRA BKN045
     FM291900 31007KT P6SM BKN050
     FM300300 32006KT P6SM SCT250=



000
FTUS41 KLWX 290500
TAFBWI
TAF
KBWI 290524Z 2906/3012 21007KT P6SM BKN250
     FM291000 VRB03KT P6SM BKN250
     FM291500 30007KT P6SM BKN050
     FM291800 30009KT P6SM -SHRA BKN045
     FM291900 30008KT P6SM BKN050
     FM300200 31005KT P6SM SCT250=



000
FTUS41 KLWX 290500
TAFCHO
TAF
KCHO 290524Z 2906/3006 21005KT P6SM BKN250
     FM291100 00000KT P6SM BKN150
     FM291400 VRB03KT P6SM -SHRA BKN040
     FM291600 29004KT P6SM BKN040
     FM291800 27005KT P6SM BKN030
     FM291900 27005KT P6SM BKN050
     FM300200 VRB03KT P6SM SCT250=



000
FTUS41 KLWX 290500
TAFMRB
TAF
KMRB 290524Z 2906/3006 23004KT P6SM BKN100
     FM291100 28004KT 6SM -SHRA OVC050
     FM291500 29008KT 6SM -SHRA BKN060
     FM291600 29008KT P6SM BKN080
     FM292300 29006KT P6SM SCT250=



000
FTUS41 KLWX 290500
TAFIAD
TAF
KIAD 290524Z 2906/3012 21006KT P6SM BKN150
     FM291300 30004KT P6SM BKN050
     FM291400 30006KT 6SM -SHRA BKN050
     FM291600 31007KT P6SM BKN045
     FM300200 32005KT P6SM SCT250=



000
FTUS41 KLWX 290500
TAFMTN
TAF
KMTN 290524Z 2906/3006 NIL=



000
FTUS41 KLWX 282300
TAFBWI
TAF
KBWI 282339Z 2900/3006 18006KT P6SM SCT250
     FM291100 27004KT P6SM BKN090
     FM291400 29006KT 6SM -SHRA BKN050
     FM292100 30006KT P6SM BKN090
     FM300200 31005KT P6SM SCT250=



000
FTUS41 KLWX 282300
TAFCHO
TAF
KCHO 282339Z 2900/2924 20006KT P6SM SCT250
     FM291100 00000KT P6SM BKN250
     FM291400 VRB03KT P6SM -SHRA BKN050
     FM291800 27005KT P6SM OVC050=



000
FTUS41 KLWX 282300
TAFMRB
TAF
KMRB 282339Z 2900/2924 18006KT P6SM BKN250
     FM290700 24004KT P6SM BKN090
     FM291000 28004KT 6SM -SHRA BKN050
     FM291400 29007KT P6SM OVC050=



000
FTUS41 KLWX 282300
TAFDCA
TAF
KDCA 282339Z 2900/2924 19008KT P6SM SCT250
     FM291100 25004KT P6SM BKN250
     FM291400 29006KT 6SM -SHRA BKN050
     FM292100 31005KT P6SM BKN090=



000
FTUS41 KLWX 282300
TAFIAD
TAF
KIAD 282339Z 2900/3006 19007KT P6SM SCT250
     FM291000 25004KT P6SM BKN250
     FM291300 30006KT 6SM -SHRA BKN050
     FM291800 31007KT P6SM OVC050
     FM300200 32005KT P6SM SCT250=



000
FTUS41 KLWX 282300
TAFMTN
TAF
KMTN 282339Z 2900/2924 18005KT P6SM SCT250
     FM291100 24004KT P6SM BKN250
     FM291400 28006KT 6SM -SHRA BKN050
     FM292100 29006KT P6SM BKN090
      AMD NOT SKED 2902/2912=



000
FTUS41 KLWX 282000 AAA
TAFBWI
TAF AMD
KBWI 282057Z 2821/2924 19006KT P6SM SCT250
     FM291300 27004KT P6SM BKN060
     FM291600 30008KT P6SM OVC050
     FM291800 30009KT 6SM -SHRA OVC050
     FM292200 30005KT 6SM -SHRA BKN090=



000
FTUS41 KLWX 282000 AAA
TAFIAD
TAF AMD
KIAD 282057Z 2821/2924 16007KT P6SM SCT250
     FM291000 VRB03KT P6SM -SHRA BKN090
     FM291500 31007KT P6SM -SHRA BKN040
     FM291800 31007KT P6SM OVC060
     FM292300 31005KT P6SM SCT090=



000
FTUS41 KLWX 282000 AAA
TAFDCA
TAF AMD
KDCA 282057Z 2821/2918 19010KT P6SM SCT250
     FM291100 VRB03KT P6SM BKN200
     FM291500 30007KT P6SM -SHRA BKN030
     FM291600 30008KT P6SM BKN040=



000
FTUS41 KLWX 281700
TAFMRB
TAF
KMRB 281731Z 2818/2918 20008KT P6SM BKN250
     FM290600 23004KT P6SM BKN070
     FM291000 28004KT 6SM -SHRA BKN040
     FM291500 29008KT 6SM -SHRA BKN080=



000
FTUS41 KLWX 281700
TAFCHO
TAF
KCHO 281731Z 2818/2918 20010KT P6SM SCT250
     FM290000 20006KT P6SM FEW250
     FM291000 VRB03KT 6SM -SHRA BKN090=



000
FTUS41 KLWX 281700
TAFBWI
TAF
KBWI 281731Z 2818/2924 19011KT P6SM SCT250
     FM290000 18006KT P6SM FEW250
     FM291300 27004KT P6SM BKN060
     FM291600 30008KT P6SM OVC050
     FM291800 30009KT 6SM -SHRA OVC050
     FM292200 30005KT 6SM -SHRA BKN090=



000
FTUS41 KLWX 281700
TAFMTN
TAF
KMTN 281731Z 2818/2918 19011KT P6SM SCT250
     FM290000 18007KT P6SM FEW250
     FM291100 VRB03KT P6SM BKN200
     FM291500 29007KT P6SM BKN040=



000
FTUS41 KLWX 281700
TAFIAD
TAF
KIAD 281731Z 2818/2924 19011KT P6SM SCT250
     FM290000 19007KT P6SM FEW250
     FM291000 VRB03KT P6SM -SHRA BKN090
     FM291500 31007KT P6SM -SHRA BKN040
     FM291800 31007KT P6SM OVC060
     FM292300 31005KT P6SM SCT090=



000
FTUS41 KLWX 281700
TAFDCA
TAF
KDCA 281731Z 2818/2918 19011KT P6SM SCT250
     FM290000 19007KT P6SM FEW250
     FM291100 VRB03KT P6SM BKN200
     FM291500 30007KT P6SM -SHRA BKN030
     FM291600 30008KT P6SM BKN040=



000
FTUS41 KLWX 281500 AAA
TAFIAD
TAF AMD
KIAD 281500Z 2815/2918 19006KT P6SM BKN250
     FM281700 18008G16KT P6SM SCT250
     FM282300 20005KT P6SM FEW250
     FM290900 VRB03KT P6SM BKN050
     FM291500 30007KT 6SM -SHRA OVC050=



000
FTUS41 KLWX 281500 AAA
TAFBWI
TAF AMD
KBWI 281500Z 2815/2918 21006KT P6SM SCT250
     FM281700 18008G16KT P6SM FEW250
     FM282300 VRB04KT P6SM FEW250
     FM291500 29009KT 6SM -SHRA OVC050=



000
FTUS41 KLWX 281500 AAA
TAFDCA
TAF AMD
KDCA 281500Z 2815/2912 19008G16KT P6SM SCT250
     FM282300 19008KT P6SM FEW250
     FM291000 20008KT P6SM BKN050=



000
FTUS41 KLWX 281100
TAFMRB
TAF
KMRB 281135Z 2812/2912 VRB03KT P6SM SCT250
     FM281500 18006KT P6SM FEW250
     FM281800 20008G16KT P6SM FEW250
     FM282300 VRB04KT P6SM SCT250
     FM291000 VRB04KT 6SM -SHRA OVC050=



000
FTUS41 KLWX 281100
TAFCHO
TAF
KCHO 281135Z 2812/2912 VRB03KT P6SM SCT250
     FM281500 22006KT P6SM FEW250
     FM281800 20008G16KT P6SM FEW250
     FM282300 20004KT P6SM FEW250
     FM291000 VRB03KT P6SM BKN050=



000
FTUS41 KLWX 281100
TAFMTN
TAF
KMTN 281135Z 2812/2912 VRB03KT P6SM BKN250
     FM281400 14005KT P6SM SCT250
     FM281700 14010G18KT P6SM FEW250
     FM282300 VRB04KT P6SM FEW250
     FM291000 VRB03KT P6SM BKN050=



000
FTUS41 KLWX 281100
TAFBWI
TAF
KBWI 281135Z 2812/2918 VRB03KT P6SM BKN250
     FM281400 21006KT P6SM SCT250
     FM281700 18008G16KT P6SM FEW250
     FM282300 VRB04KT P6SM FEW250
     FM291500 29009KT 6SM -SHRA OVC050=



000
FTUS41 KLWX 281100
TAFDCA
TAF
KDCA 281135Z 2812/2912 19007KT P6SM BKN250
     FM281400 19008G16KT P6SM SCT250
     FM282300 19008KT P6SM FEW250
     FM291000 20008KT P6SM BKN050=



000
FTUS41 KLWX 281100
TAFIAD
TAF
KIAD 281135Z 2812/2918 19006KT P6SM BKN250
     FM281700 18008G16KT P6SM SCT250
     FM282300 20005KT P6SM FEW250
     FM290900 VRB03KT P6SM BKN050
     FM291500 30007KT 6SM -SHRA OVC050=



000
FTUS41 KLWX 280800 AAA
TAFDCA
TAF AMD
KDCA 280852Z 2809/2906 19007KT P6SM BKN250
     FM281700 19008G16KT P6SM FEW250
     FM282300 19008KT P6SM FEW250=



000
FTUS41 KLWX 280800 AAA
TAFIAD
TAF AMD
KIAD 280852Z 2809/2912 19006KT P6SM BKN250
     FM281700 18008G16KT P6SM FEW250
     FM282300 20005KT P6SM FEW250
     FM290900 VRB03KT P6SM BKN050=



000
FTUS41 KLWX 280800 AAA
TAFBWI
TAF AMD
KBWI 280852Z 2809/2912 VRB03KT P6SM BKN250
     FM281400 21006KT P6SM FEW250
     FM281700 18008G16KT P6SM FEW250
     FM282300 VRB04KT P6SM FEW250=



000
FTUS41 KLWX 280500
TAFIAD
TAF
KIAD 280529Z 2806/2912 19005KT P6SM SCT250
     FM281700 18008G16KT P6SM FEW250
     FM282300 20005KT P6SM FEW250
     FM290900 VRB03KT P6SM BKN050=



000
FTUS41 KLWX 280500
TAFCHO
TAF
KCHO 280529Z 2806/2906 VRB03KT P6SM SCT250
     FM281500 22006KT P6SM FEW250
     FM281800 20008G16KT P6SM FEW250
     FM282300 20004KT P6SM FEW250=



000
FTUS41 KLWX 280500
TAFDCA
TAF
KDCA 280529Z 2806/2906 19005KT P6SM SCT250
     FM281700 19008G16KT P6SM FEW250
     FM282300 19008KT P6SM FEW250=



000
FTUS41 KLWX 280500
TAFMRB
TAF
KMRB 280529Z 2806/2906 VRB03KT P6SM SCT250
     FM281500 18006KT P6SM FEW250
     FM281800 20008G16KT P6SM FEW250
     FM282300 VRB04KT P6SM SCT250=



000
FTUS41 KLWX 280500
TAFMTN
TAF
KMTN 280529Z 2806/2906 NIL=



000
FTUS41 KLWX 280500
TAFBWI
TAF
KBWI 280529Z 2806/2912 VRB03KT P6SM SCT250
     FM281400 21006KT P6SM FEW250
     FM281700 18008G16KT P6SM FEW250
     FM282300 VRB04KT P6SM FEW250=



    US Dept of Commerce
    National Oceanic and Atmospheric Administration
    National Weather Service
    1325 East West Highway
    Silver Spring, MD 20910
    Page Author: NWS Internet Services Team
Disclaimer
Information Quality
Credits
Glossary
Privacy Policy
Freedom of Information Act (FOIA)
About Us
Career Opportunities